createdAt,value
2023-01-07T00:02:44.154Z,0.30
2023-01-07T00:07:51.308Z,0.40
2023-01-07T00:12:58.331Z,0.40
2023-01-07T00:18:07.335Z,0.40
2023-01-07T00:23:15.230Z,0.30
2023-01-07T00:28:22.183Z,0.40
2023-01-07T00:33:34.067Z,0.40
2023-01-07T00:38:40.991Z,0.40
2023-01-07T00:43:48.581Z,0.30
2023-01-07T00:48:55.436Z,0.43
2023-01-07T00:54:02.302Z,0.40
2023-01-07T00:59:09.671Z,0.40
2023-01-07T01:04:18.062Z,0.30
2023-01-07T01:09:26.763Z,0.40
2023-01-07T01:14:33.668Z,0.40
2023-01-07T01:19:41.045Z,0.30
2023-01-07T01:24:48.086Z,0.30
2023-01-07T01:29:55.171Z,0.40
2023-01-07T01:35:02.319Z,0.33
2023-01-07T01:40:11.273Z,0.40
2023-01-07T01:45:18.552Z,0.40
2023-01-07T01:50:28.755Z,0.40
2023-01-07T01:55:39.083Z,0.40
2023-01-07T02:00:46.682Z,0.50
2023-01-07T02:05:54.917Z,0.33
2023-01-07T02:11:05.498Z,0.40
2023-01-07T02:16:13.813Z,0.47
2023-01-07T02:21:20.676Z,0.30
2023-01-07T02:26:31.849Z,0.30
2023-01-07T02:31:41.762Z,0.40
2023-01-07T02:36:50.372Z,0.40
2023-01-07T02:42:00.754Z,0.50
2023-01-07T02:47:10.095Z,0.30
2023-01-07T02:52:19.974Z,0.30
2023-01-07T02:57:29.975Z,0.40
2023-01-07T03:02:39.991Z,0.30
2023-01-07T03:07:50.159Z,0.40
2023-01-07T03:13:00.027Z,0.40
2023-01-07T03:18:10.694Z,0.50
2023-01-07T03:23:20.918Z,0.47
2023-01-07T03:28:30.933Z,0.40
2023-01-07T03:33:42.306Z,0.40
2023-01-07T03:38:52.691Z,0.50
2023-01-07T03:44:00.646Z,0.40
2023-01-07T03:49:08.146Z,0.43
2023-01-07T03:54:15.427Z,0.40
2023-01-07T03:59:22.533Z,0.30
2023-01-07T04:04:29.954Z,0.47
2023-01-07T04:09:37.154Z,0.50
2023-01-07T04:14:44.196Z,0.40
2023-01-07T04:19:51.967Z,0.40
2023-01-07T04:24:58.906Z,0.40
2023-01-07T04:30:07.228Z,0.40
2023-01-07T04:35:14.218Z,0.50
2023-01-07T04:40:21.495Z,0.50
2023-01-07T04:45:28.837Z,0.40
2023-01-07T04:50:37.421Z,0.50
2023-01-07T04:55:46.617Z,0.40
2023-01-07T05:00:56.294Z,0.50
2023-01-07T05:06:05.076Z,0.50
2023-01-07T05:11:12.666Z,0.50
2023-01-07T05:16:21.349Z,0.60
2023-01-07T05:21:29.690Z,0.50
2023-01-07T05:26:37.180Z,0.40
2023-01-07T05:31:44.599Z,0.50
2023-01-07T05:36:52.801Z,0.50
2023-01-07T05:42:01.158Z,0.60
2023-01-07T05:47:08.487Z,0.40
2023-01-07T05:52:15.638Z,0.43
2023-01-07T05:57:22.518Z,0.50
2023-01-07T06:02:29.327Z,0.50
2023-01-07T06:07:36.293Z,0.50
2023-01-07T06:12:44.351Z,0.50
2023-01-07T06:17:51.413Z,0.50
2023-01-07T06:22:58.491Z,0.50
2023-01-07T06:28:05.888Z,0.50
2023-01-07T06:33:13.155Z,0.50
2023-01-07T06:38:20.049Z,0.70
2023-01-07T06:43:27.259Z,0.60
2023-01-07T06:48:34.449Z,0.57
2023-01-07T06:53:41.652Z,0.80
2023-01-07T06:58:48.958Z,0.90
2023-01-07T07:03:55.887Z,0.73
2023-01-07T07:09:02.849Z,1.10
2023-01-07T07:14:09.950Z,0.87
2023-01-07T07:19:16.963Z,1.00
2023-01-07T07:24:23.962Z,0.90
2023-01-07T07:29:31.364Z,0.77
2023-01-07T07:34:38.527Z,0.70
2023-01-07T07:39:45.660Z,1.00
2023-01-07T07:44:52.834Z,0.80
2023-01-07T07:50:00.009Z,1.00
2023-01-07T07:55:20.098Z,0.73
2023-01-07T08:00:16.151Z,1.00
2023-01-07T08:05:35.814Z,0.90
2023-01-07T08:10:43.793Z,0.90
2023-01-07T08:15:50.711Z,0.70
2023-01-07T08:20:57.802Z,0.40
2023-01-07T08:26:06.752Z,0.60
2023-01-07T08:31:14.036Z,0.60
2023-01-07T08:36:23.495Z,0.53
2023-01-07T08:41:29.817Z,0.60
2023-01-07T08:46:36.933Z,0.70
2023-01-07T08:51:43.868Z,0.40
2023-01-07T08:56:50.905Z,0.60
2023-01-07T09:01:57.901Z,0.80
2023-01-07T09:07:05.416Z,0.63
2023-01-07T09:12:12.405Z,0.60
2023-01-07T09:17:19.413Z,0.77
2023-01-07T09:22:26.478Z,1.00
2023-01-07T09:27:34.197Z,0.60
2023-01-07T09:32:43.151Z,0.57
2023-01-07T09:37:50.349Z,0.77
2023-01-07T09:43:00.275Z,0.70
2023-01-07T09:48:10.178Z,0.60
2023-01-07T09:53:20.507Z,0.70
2023-01-07T09:58:28.040Z,0.70
2023-01-07T10:03:35.327Z,0.73
2023-01-07T10:08:45.233Z,0.80
2023-01-07T10:13:55.499Z,0.70
2023-01-07T10:19:05.500Z,0.80
2023-01-07T10:24:33.393Z,0.80
2023-01-07T10:29:41.959Z,0.90
2023-01-07T10:34:51.998Z,0.80
2023-01-07T10:40:02.651Z,0.80
2023-01-07T10:45:14.805Z,0.80
2023-01-07T10:50:24.730Z,0.70
2023-01-07T10:55:34.116Z,0.70
2023-01-07T11:00:41.951Z,0.90
2023-01-07T11:05:51.866Z,1.10
2023-01-07T11:10:59.959Z,0.97
2023-01-07T11:16:10.467Z,1.00
2023-01-07T11:21:43.521Z,0.90
2023-01-07T11:26:32.615Z,1.10
2023-01-07T11:31:42.682Z,1.10
2023-01-07T11:36:49.917Z,0.97
2023-01-07T11:41:58.275Z,1.17
2023-01-07T11:47:05.923Z,1.40
2023-01-07T11:52:17.156Z,0.90
2023-01-07T11:57:26.763Z,1.03
2023-01-07T12:02:33.812Z,1.00
2023-01-07T12:07:43.644Z,1.07
2023-01-07T12:12:51.753Z,1.10
2023-01-07T12:18:02.530Z,0.90
2023-01-07T12:23:12.441Z,1.00
2023-01-07T12:28:22.435Z,1.10
2023-01-07T12:33:32.040Z,1.10
2023-01-07T12:38:41.908Z,1.03
2023-01-07T12:43:49.880Z,1.37
2023-01-07T12:48:59.716Z,1.10
2023-01-07T12:54:09.560Z,1.07
2023-01-07T12:59:45.613Z,1.30
2023-01-07T13:04:29.369Z,1.17
2023-01-07T13:09:37.581Z,0.90
2023-01-07T13:14:47.425Z,1.00
2023-01-07T13:19:55.242Z,0.80
2023-01-07T13:25:03.279Z,1.00
2023-01-07T13:30:13.179Z,0.90
2023-01-07T13:35:23.177Z,1.03
2023-01-07T13:40:31.897Z,1.00
2023-01-07T13:45:41.153Z,0.90
2023-01-07T13:50:51.099Z,1.07
2023-01-07T13:56:01.255Z,1.00
2023-01-07T14:01:11.263Z,1.03
2023-01-07T14:06:20.572Z,1.10
2023-01-07T14:11:30.615Z,0.97
2023-01-07T14:16:40.441Z,0.90
2023-01-07T14:21:49.642Z,1.00
2023-01-07T14:26:57.881Z,0.80
2023-01-07T14:32:07.653Z,1.10
2023-01-07T14:37:20.321Z,0.90
2023-01-07T14:42:30.371Z,1.00
2023-01-07T14:47:40.191Z,0.97
2023-01-07T14:52:49.941Z,1.10
2023-01-07T14:58:00.052Z,1.00
2023-01-07T15:03:06.583Z,1.07
2023-01-07T15:08:18.209Z,0.97
2023-01-07T15:13:27.221Z,1.30
2023-01-07T15:18:37.270Z,1.23
2023-01-07T15:23:47.166Z,1.30
2023-01-07T15:28:57.184Z,1.20
2023-01-07T15:34:07.151Z,1.20
2023-01-07T15:39:17.115Z,1.10
2023-01-07T15:44:29.235Z,1.30
2023-01-07T15:49:36.677Z,1.33
2023-01-07T15:54:43.579Z,1.30
2023-01-07T15:59:53.577Z,1.20
2023-01-07T16:05:04.045Z,1.10
2023-01-07T16:10:14.923Z,1.27
2023-01-07T16:15:25.641Z,1.07
2023-01-07T16:20:33.657Z,1.10
2023-01-07T16:25:43.711Z,1.10
2023-01-07T16:30:52.999Z,1.03
2023-01-07T16:36:03.458Z,1.10
2023-01-07T16:41:13.570Z,1.17
2023-01-07T16:46:23.880Z,1.10
2023-01-07T16:51:33.950Z,1.20
2023-01-07T16:56:41.003Z,1.50
2023-01-07T17:01:49.305Z,1.40
2023-01-07T17:06:57.253Z,1.27
2023-01-07T17:12:05.730Z,1.20
2023-01-07T17:17:15.579Z,1.30
2023-01-07T17:22:25.411Z,1.20
2023-01-07T17:27:33.115Z,1.40
2023-01-07T17:32:42.650Z,1.20
2023-01-07T17:37:51.059Z,1.20
2023-01-07T17:42:59.489Z,1.30
2023-01-07T17:48:09.342Z,1.43
2023-01-07T17:53:19.326Z,1.50
2023-01-07T17:58:29.358Z,1.30
2023-01-07T18:03:36.358Z,1.30
2023-01-07T18:08:43.481Z,1.10
2023-01-07T18:13:50.620Z,1.30
2023-01-07T18:18:58.066Z,1.50
2023-01-07T18:24:05.029Z,1.20
2023-01-07T18:29:12.688Z,1.30
2023-01-07T18:34:19.554Z,1.30
2023-01-07T18:39:26.624Z,1.20
2023-01-07T18:44:33.512Z,1.40
2023-01-07T18:49:40.555Z,1.30
2023-01-07T18:54:47.705Z,1.40
2023-01-07T18:59:54.734Z,1.60
2023-01-07T19:05:01.575Z,1.30
2023-01-07T19:10:09.614Z,1.60
2023-01-07T19:15:16.567Z,1.43
2023-01-07T19:20:23.585Z,1.27
2023-01-07T19:25:31.959Z,1.20
2023-01-07T19:30:38.951Z,1.47
2023-01-07T19:35:46.274Z,1.30
2023-01-07T19:40:53.262Z,1.30
2023-01-07T19:46:00.304Z,1.30
2023-01-07T19:51:09.503Z,1.17
2023-01-07T19:56:16.530Z,1.40
2023-01-07T20:01:26.595Z,1.20
2023-01-07T20:06:37.962Z,1.40
2023-01-07T20:11:45.814Z,1.20
2023-01-07T20:16:53.129Z,1.30
2023-01-07T20:22:00.201Z,1.20
2023-01-07T20:27:07.402Z,1.30
2023-01-07T20:32:14.639Z,1.30
2023-01-07T20:37:23.635Z,1.30
2023-01-07T20:42:32.331Z,1.30
2023-01-07T20:47:39.825Z,1.20
2023-01-07T20:52:46.729Z,1.20
2023-01-07T20:57:53.694Z,1.27
2023-01-07T21:03:00.758Z,1.37
2023-01-07T21:08:08.385Z,1.20
2023-01-07T21:13:15.403Z,1.30
2023-01-07T21:18:22.677Z,1.20
2023-01-07T21:23:29.887Z,1.20
2023-01-07T21:28:37.796Z,1.30
2023-01-07T21:33:46.588Z,1.10
2023-01-07T21:38:56.462Z,1.20
2023-01-07T21:44:04.362Z,1.10
2023-01-07T21:49:12.246Z,1.17
2023-01-07T21:54:20.472Z,1.00
2023-01-07T21:59:27.666Z,1.03
2023-01-07T22:04:35.633Z,1.00
2023-01-07T22:09:42.979Z,1.20
2023-01-07T22:14:49.787Z,1.10
2023-01-07T22:19:56.941Z,1.10
2023-01-07T22:25:04.032Z,1.00
2023-01-07T22:30:13.522Z,0.90
2023-01-07T22:35:20.696Z,1.10
2023-01-07T22:40:27.606Z,1.13
2023-01-07T22:45:35.727Z,0.90
2023-01-07T22:50:43.508Z,1.13
2023-01-07T22:55:50.557Z,0.93
2023-01-07T23:00:57.762Z,1.13
2023-01-07T23:06:04.743Z,1.20
2023-01-07T23:11:14.035Z,1.00
2023-01-07T23:16:21.152Z,1.10
2023-01-07T23:21:28.389Z,1.00
2023-01-07T23:26:35.485Z,1.07
2023-01-07T23:31:42.863Z,1.20
2023-01-07T23:36:51.278Z,0.90
2023-01-07T23:41:58.378Z,0.80
2023-01-07T23:47:06.218Z,0.80
2023-01-07T23:52:13.429Z,1.00
2023-01-07T23:57:20.530Z,1.00
